sensor_id;sensor_type;location;lat;lon;timestamp;P1;durP1;ratioP1;P2;durP2;ratioP2
3571;SDS011;7958;53.024;12.970;2022-08-25T00:01:07;5.63;;;5.07;;
3571;SDS011;7958;53.024;12.970;2022-08-25T00:03:35;4.90;;;3.60;;
3571;SDS011;7958;53.024;12.970;2022-08-25T00:06:02;4.40;;;4.10;;
3571;SDS011;7958;53.024;12.970;2022-08-25T00:08:29;5.37;;;4.87;;
3571;SDS011;7958;53.024;12.970;2022-08-25T00:11:00;4.70;;;4.30;;
3571;SDS011;7958;53.024;12.970;2022-08-25T00:13:26;5.17;;;4.40;;
3571;SDS011;7958;53.024;12.970;2022-08-25T00:15:53;5.93;;;5.33;;
3571;SDS011;7958;53.024;12.970;2022-08-25T00:18:19;5.80;;;5.30;;
3571;SDS011;7958;53.024;12.970;2022-08-25T00:20:46;7.10;;;6.40;;
3571;SDS011;7958;53.024;12.970;2022-08-25T00:23:12;6.87;;;5.70;;
3571;SDS011;7958;53.024;12.970;2022-08-25T00:25:39;7.13;;;5.30;;
3571;SDS011;7958;53.024;12.970;2022-08-25T00:28:06;5.23;;;4.83;;
3571;SDS011;7958;53.024;12.970;2022-08-25T00:30:34;6.33;;;5.70;;
3571;SDS011;7958;53.024;12.970;2022-08-25T00:33:00;7.70;;;5.63;;
3571;SDS011;7958;53.024;12.970;2022-08-25T00:35:27;5.97;;;5.37;;
3571;SDS011;7958;53.024;12.970;2022-08-25T00:37:54;6.10;;;5.50;;
3571;SDS011;7958;53.024;12.970;2022-08-25T00:40:21;6.30;;;5.03;;
3571;SDS011;7958;53.024;12.970;2022-08-25T00:42:47;5.53;;;5.00;;
3571;SDS011;7958;53.024;12.970;2022-08-25T00:45:15;8.00;;;6.10;;
3571;SDS011;7958;53.024;12.970;2022-08-25T00:47:42;6.80;;;5.50;;
3571;SDS011;7958;53.024;12.970;2022-08-25T00:50:09;6.67;;;6.07;;
3571;SDS011;7958;53.024;12.970;2022-08-25T00:52:37;9.07;;;6.47;;
3571;SDS011;7958;53.024;12.970;2022-08-25T00:55:05;8.80;;;6.67;;
3571;SDS011;7958;53.024;12.970;2022-08-25T00:57:36;8.03;;;7.20;;
3571;SDS011;7958;53.024;12.970;2022-08-25T01:00:05;8.97;;;6.80;;
3571;SDS011;7958;53.024;12.970;2022-08-25T01:02:37;9.30;;;7.00;;
3571;SDS011;7958;53.024;12.970;2022-08-25T01:05:04;8.07;;;6.90;;
3571;SDS011;7958;53.024;12.970;2022-08-25T01:07:31;10.97;;;7.53;;
3571;SDS011;7958;53.024;12.970;2022-08-25T01:09:58;9.13;;;7.63;;
3571;SDS011;7958;53.024;12.970;2022-08-25T01:12:26;9.00;;;8.20;;
3571;SDS011;7958;53.024;12.970;2022-08-25T01:14:52;8.77;;;7.87;;
3571;SDS011;7958;53.024;12.970;2022-08-25T01:17:20;9.03;;;7.10;;
3571;SDS011;7958;53.024;12.970;2022-08-25T01:19:48;9.97;;;8.30;;
3571;SDS011;7958;53.024;12.970;2022-08-25T01:22:16;14.70;;;9.40;;
3571;SDS011;7958;53.024;12.970;2022-08-25T01:24:43;10.47;;;8.60;;
3571;SDS011;7958;53.024;12.970;2022-08-25T01:27:12;12.50;;;8.70;;
3571;SDS011;7958;53.024;12.970;2022-08-25T01:29:41;16.60;;;8.67;;
3571;SDS011;7958;53.024;12.970;2022-08-25T01:32:09;10.50;;;9.40;;
3571;SDS011;7958;53.024;12.970;2022-08-25T01:34:44;11.03;;;9.50;;
3571;SDS011;7958;53.024;12.970;2022-08-25T01:37:11;12.23;;;10.67;;
3571;SDS011;7958;53.024;12.970;2022-08-25T01:39:41;13.00;;;10.13;;
3571;SDS011;7958;53.024;12.970;2022-08-25T01:42:12;12.33;;;8.33;;
3571;SDS011;7958;53.024;12.970;2022-08-25T01:44:44;10.20;;;9.10;;
3571;SDS011;7958;53.024;12.970;2022-08-25T01:47:12;9.67;;;8.53;;
3571;SDS011;7958;53.024;12.970;2022-08-25T01:49:39;13.07;;;9.47;;
3571;SDS011;7958;53.024;12.970;2022-08-25T01:52:06;10.20;;;9.10;;
3571;SDS011;7958;53.024;12.970;2022-08-25T01:54:37;10.57;;;9.43;;
3571;SDS011;7958;53.024;12.970;2022-08-25T01:57:05;11.37;;;9.57;;
3571;SDS011;7958;53.024;12.970;2022-08-25T01:59:32;16.70;;;11.00;;
3571;SDS011;7958;53.024;12.970;2022-08-25T02:01:58;13.10;;;9.93;;
3571;SDS011;7958;53.024;12.970;2022-08-25T02:04:25;16.30;;;10.40;;
3571;SDS011;7958;53.024;12.970;2022-08-25T02:06:53;13.57;;;10.77;;
3571;SDS011;7958;53.024;12.970;2022-08-25T02:09:19;12.57;;;10.37;;
3571;SDS011;7958;53.024;12.970;2022-08-25T02:11:46;19.90;;;10.20;;
3571;SDS011;7958;53.024;12.970;2022-08-25T02:14:14;13.27;;;10.80;;
3571;SDS011;7958;53.024;12.970;2022-08-25T02:16:43;13.60;;;11.37;;
3571;SDS011;7958;53.024;12.970;2022-08-25T02:19:12;15.40;;;11.20;;
3571;SDS011;7958;53.024;12.970;2022-08-25T02:21:39;16.50;;;12.53;;
3571;SDS011;7958;53.024;12.970;2022-08-25T02:24:06;12.23;;;10.83;;
3571;SDS011;7958;53.024;12.970;2022-08-25T02:26:33;13.97;;;11.43;;
3571;SDS011;7958;53.024;12.970;2022-08-25T02:29:00;15.97;;;10.73;;
3571;SDS011;7958;53.024;12.970;2022-08-25T02:31:28;15.60;;;11.87;;
3571;SDS011;7958;53.024;12.970;2022-08-25T02:33:55;15.23;;;11.73;;
3571;SDS011;7958;53.024;12.970;2022-08-25T02:36:22;15.20;;;11.80;;
3571;SDS011;7958;53.024;12.970;2022-08-25T02:38:49;22.23;;;11.80;;
3571;SDS011;7958;53.024;12.970;2022-08-25T02:41:17;15.90;;;11.93;;
3571;SDS011;7958;53.024;12.970;2022-08-25T02:43:45;19.30;;;13.00;;
3571;SDS011;7958;53.024;12.970;2022-08-25T02:46:16;18.57;;;12.77;;
3571;SDS011;7958;53.024;12.970;2022-08-25T02:48:45;18.63;;;13.27;;
3571;SDS011;7958;53.024;12.970;2022-08-25T02:51:11;19.03;;;13.13;;
3571;SDS011;7958;53.024;12.970;2022-08-25T02:53:38;20.77;;;13.73;;
3571;SDS011;7958;53.024;12.970;2022-08-25T02:56:06;18.40;;;13.80;;
3571;SDS011;7958;53.024;12.970;2022-08-25T02:58:33;17.10;;;12.80;;
3571;SDS011;7958;53.024;12.970;2022-08-25T03:01:00;17.57;;;12.53;;
3571;SDS011;7958;53.024;12.970;2022-08-25T03:03:26;19.13;;;13.77;;
3571;SDS011;7958;53.024;12.970;2022-08-25T03:05:54;20.03;;;14.80;;
3571;SDS011;7958;53.024;12.970;2022-08-25T03:08:21;24.70;;;13.40;;
3571;SDS011;7958;53.024;12.970;2022-08-25T03:10:48;18.73;;;13.47;;
3571;SDS011;7958;53.024;12.970;2022-08-25T03:13:14;20.03;;;13.80;;
3571;SDS011;7958;53.024;12.970;2022-08-25T03:15:42;19.40;;;13.90;;
3571;SDS011;7958;53.024;12.970;2022-08-25T03:18:08;19.40;;;14.80;;
3571;SDS011;7958;53.024;12.970;2022-08-25T03:20:35;21.67;;;14.10;;
3571;SDS011;7958;53.024;12.970;2022-08-25T03:23:05;19.80;;;13.97;;
3571;SDS011;7958;53.024;12.970;2022-08-25T03:25:32;20.73;;;13.90;;
3571;SDS011;7958;53.024;12.970;2022-08-25T03:28:16;20.97;;;13.33;;
3571;SDS011;7958;53.024;12.970;2022-08-25T03:30:43;18.87;;;13.10;;
3571;SDS011;7958;53.024;12.970;2022-08-25T03:33:09;18.00;;;14.47;;
3571;SDS011;7958;53.024;12.970;2022-08-25T03:35:36;20.07;;;14.37;;
3571;SDS011;7958;53.024;12.970;2022-08-25T03:38:04;23.33;;;14.30;;
3571;SDS011;7958;53.024;12.970;2022-08-25T03:40:30;24.30;;;15.90;;
3571;SDS011;7958;53.024;12.970;2022-08-25T03:42:57;26.30;;;16.10;;
3571;SDS011;7958;53.024;12.970;2022-08-25T03:45:24;25.20;;;15.43;;
3571;SDS011;7958;53.024;12.970;2022-08-25T03:47:51;23.70;;;14.60;;
3571;SDS011;7958;53.024;12.970;2022-08-25T03:50:18;27.20;;;15.47;;
3571;SDS011;7958;53.024;12.970;2022-08-25T03:52:49;22.20;;;15.93;;
3571;SDS011;7958;53.024;12.970;2022-08-25T03:55:19;22.10;;;14.80;;
3571;SDS011;7958;53.024;12.970;2022-08-25T03:57:47;23.67;;;17.47;;
3571;SDS011;7958;53.024;12.970;2022-08-25T04:00:14;23.50;;;16.73;;
3571;SDS011;7958;53.024;12.970;2022-08-25T04:02:40;29.13;;;17.47;;
3571;SDS011;7958;53.024;12.970;2022-08-25T04:05:07;25.43;;;17.13;;
3571;SDS011;7958;53.024;12.970;2022-08-25T04:07:35;26.50;;;16.83;;
3571;SDS011;7958;53.024;12.970;2022-08-25T04:10:02;25.20;;;16.40;;
3571;SDS011;7958;53.024;12.970;2022-08-25T04:12:29;25.57;;;16.90;;
3571;SDS011;7958;53.024;12.970;2022-08-25T04:14:56;26.13;;;16.60;;
3571;SDS011;7958;53.024;12.970;2022-08-25T04:17:23;28.40;;;17.73;;
3571;SDS011;7958;53.024;12.970;2022-08-25T04:19:49;28.20;;;17.53;;
3571;SDS011;7958;53.024;12.970;2022-08-25T04:22:16;24.63;;;15.70;;
3571;SDS011;7958;53.024;12.970;2022-08-25T04:24:42;27.47;;;17.67;;
3571;SDS011;7958;53.024;12.970;2022-08-25T04:27:08;29.13;;;18.10;;
3571;SDS011;7958;53.024;12.970;2022-08-25T04:29:36;22.33;;;15.93;;
3571;SDS011;7958;53.024;12.970;2022-08-25T04:32:03;24.50;;;16.10;;
3571;SDS011;7958;53.024;12.970;2022-08-25T04:34:29;27.43;;;17.30;;
3571;SDS011;7958;53.024;12.970;2022-08-25T04:36:56;28.87;;;17.50;;
3571;SDS011;7958;53.024;12.970;2022-08-25T04:39:23;26.00;;;16.50;;
3571;SDS011;7958;53.024;12.970;2022-08-25T04:41:50;26.23;;;17.20;;
3571;SDS011;7958;53.024;12.970;2022-08-25T04:44:16;27.90;;;17.00;;
3571;SDS011;7958;53.024;12.970;2022-08-25T04:46:44;30.37;;;17.20;;
3571;SDS011;7958;53.024;12.970;2022-08-25T04:49:10;27.23;;;17.37;;
3571;SDS011;7958;53.024;12.970;2022-08-25T04:51:38;35.80;;;18.90;;
3571;SDS011;7958;53.024;12.970;2022-08-25T04:54:07;24.83;;;16.80;;
3571;SDS011;7958;53.024;12.970;2022-08-25T04:56:35;26.33;;;17.47;;
3571;SDS011;7958;53.024;12.970;2022-08-25T04:59:05;26.80;;;17.00;;
3571;SDS011;7958;53.024;12.970;2022-08-25T05:01:32;31.63;;;18.33;;
3571;SDS011;7958;53.024;12.970;2022-08-25T05:04:01;25.37;;;17.13;;
3571;SDS011;7958;53.024;12.970;2022-08-25T05:06:29;29.00;;;18.63;;
3571;SDS011;7958;53.024;12.970;2022-08-25T05:08:56;26.03;;;16.60;;
3571;SDS011;7958;53.024;12.970;2022-08-25T05:11:24;31.37;;;17.10;;
3571;SDS011;7958;53.024;12.970;2022-08-25T05:13:51;22.57;;;16.07;;
3571;SDS011;7958;53.024;12.970;2022-08-25T05:16:19;24.20;;;16.10;;
3571;SDS011;7958;53.024;12.970;2022-08-25T05:18:47;22.70;;;14.80;;
3571;SDS011;7958;53.024;12.970;2022-08-25T05:21:15;24.87;;;15.40;;
3571;SDS011;7958;53.024;12.970;2022-08-25T05:23:42;22.47;;;15.10;;
3571;SDS011;7958;53.024;12.970;2022-08-25T05:26:11;21.13;;;14.30;;
3571;SDS011;7958;53.024;12.970;2022-08-25T05:28:38;22.33;;;14.73;;
3571;SDS011;7958;53.024;12.970;2022-08-25T05:31:07;19.50;;;14.73;;
3571;SDS011;7958;53.024;12.970;2022-08-25T05:33:35;21.80;;;15.07;;
3571;SDS011;7958;53.024;12.970;2022-08-25T05:36:09;19.90;;;15.43;;
3571;SDS011;7958;53.024;12.970;2022-08-25T05:38:37;24.27;;;15.63;;
3571;SDS011;7958;53.024;12.970;2022-08-25T05:41:05;19.67;;;14.27;;
3571;SDS011;7958;53.024;12.970;2022-08-25T05:43:35;21.60;;;14.33;;
3571;SDS011;7958;53.024;12.970;2022-08-25T05:46:01;23.03;;;15.37;;
3571;SDS011;7958;53.024;12.970;2022-08-25T05:48:28;18.30;;;14.03;;
3571;SDS011;7958;53.024;12.970;2022-08-25T05:50:55;21.73;;;15.23;;
3571;SDS011;7958;53.024;12.970;2022-08-25T05:53:22;19.10;;;14.83;;
3571;SDS011;7958;53.024;12.970;2022-08-25T05:55:51;17.07;;;13.80;;
3571;SDS011;7958;53.024;12.970;2022-08-25T05:58:19;16.77;;;13.50;;
3571;SDS011;7958;53.024;12.970;2022-08-25T06:00:46;17.37;;;12.97;;
3571;SDS011;7958;53.024;12.970;2022-08-25T06:03:12;17.97;;;14.50;;
3571;SDS011;7958;53.024;12.970;2022-08-25T06:05:38;20.20;;;15.23;;
3571;SDS011;7958;53.024;12.970;2022-08-25T06:08:05;15.97;;;11.93;;
3571;SDS011;7958;53.024;12.970;2022-08-25T06:10:31;14.70;;;12.47;;
3571;SDS011;7958;53.024;12.970;2022-08-25T06:12:59;23.33;;;13.03;;
3571;SDS011;7958;53.024;12.970;2022-08-25T06:15:26;16.40;;;12.43;;
3571;SDS011;7958;53.024;12.970;2022-08-25T06:17:53;17.30;;;12.50;;
3571;SDS011;7958;53.024;12.970;2022-08-25T06:20:22;17.57;;;13.17;;
3571;SDS011;7958;53.024;12.970;2022-08-25T06:22:50;19.63;;;12.90;;
3571;SDS011;7958;53.024;12.970;2022-08-25T06:25:17;15.73;;;10.80;;
3571;SDS011;7958;53.024;12.970;2022-08-25T06:27:45;17.13;;;11.97;;
3571;SDS011;7958;53.024;12.970;2022-08-25T06:30:14;18.00;;;12.47;;
3571;SDS011;7958;53.024;12.970;2022-08-25T06:32:42;14.87;;;10.83;;
3571;SDS011;7958;53.024;12.970;2022-08-25T06:35:10;12.33;;;11.03;;
3571;SDS011;7958;53.024;12.970;2022-08-25T06:37:38;14.43;;;11.17;;
3571;SDS011;7958;53.024;12.970;2022-08-25T06:40:06;12.93;;;11.00;;
3571;SDS011;7958;53.024;12.970;2022-08-25T06:42:33;12.93;;;10.93;;
3571;SDS011;7958;53.024;12.970;2022-08-25T06:44:59;15.10;;;10.97;;
3571;SDS011;7958;53.024;12.970;2022-08-25T06:47:27;12.70;;;10.70;;
3571;SDS011;7958;53.024;12.970;2022-08-25T06:49:54;13.00;;;10.17;;
3571;SDS011;7958;53.024;12.970;2022-08-25T06:52:20;16.43;;;11.27;;
3571;SDS011;7958;53.024;12.970;2022-08-25T06:54:47;15.87;;;11.23;;
3571;SDS011;7958;53.024;12.970;2022-08-25T06:57:13;15.83;;;11.00;;
3571;SDS011;7958;53.024;12.970;2022-08-25T06:59:39;15.30;;;12.03;;
3571;SDS011;7958;53.024;12.970;2022-08-25T07:02:08;19.70;;;13.23;;
3571;SDS011;7958;53.024;12.970;2022-08-25T07:04:38;13.93;;;11.47;;
3571;SDS011;7958;53.024;12.970;2022-08-25T07:07:05;14.73;;;12.37;;
3571;SDS011;7958;53.024;12.970;2022-08-25T07:09:31;14.87;;;10.50;;
3571;SDS011;7958;53.024;12.970;2022-08-25T07:11:58;12.43;;;10.53;;
3571;SDS011;7958;53.024;12.970;2022-08-25T07:14:26;13.10;;;10.27;;
3571;SDS011;7958;53.024;12.970;2022-08-25T07:16:52;11.23;;;10.10;;
3571;SDS011;7958;53.024;12.970;2022-08-25T07:19:22;14.63;;;10.70;;
3571;SDS011;7958;53.024;12.970;2022-08-25T07:21:50;13.00;;;9.90;;
3571;SDS011;7958;53.024;12.970;2022-08-25T07:24:18;18.70;;;11.47;;
3571;SDS011;7958;53.024;12.970;2022-08-25T07:26:44;14.87;;;11.37;;
3571;SDS011;7958;53.024;12.970;2022-08-25T07:29:12;14.50;;;12.60;;
3571;SDS011;7958;53.024;12.970;2022-08-25T07:31:40;13.03;;;11.37;;
3571;SDS011;7958;53.024;12.970;2022-08-25T07:34:07;15.23;;;12.70;;
3571;SDS011;7958;53.024;12.970;2022-08-25T07:36:53;16.00;;;13.10;;
3571;SDS011;7958;53.024;12.970;2022-08-25T07:39:19;20.07;;;12.07;;
3571;SDS011;7958;53.024;12.970;2022-08-25T07:41:46;14.33;;;11.67;;
3571;SDS011;7958;53.024;12.970;2022-08-25T07:44:12;20.10;;;13.23;;
3571;SDS011;7958;53.024;12.970;2022-08-25T07:46:40;16.53;;;12.63;;
3571;SDS011;7958;53.024;12.970;2022-08-25T07:49:07;17.73;;;13.20;;
3571;SDS011;7958;53.024;12.970;2022-08-25T07:51:34;18.03;;;13.87;;
3571;SDS011;7958;53.024;12.970;2022-08-25T07:54:03;20.13;;;13.80;;
3571;SDS011;7958;53.024;12.970;2022-08-25T07:56:30;15.53;;;12.90;;
3571;SDS011;7958;53.024;12.970;2022-08-25T07:58:56;17.97;;;13.73;;
3571;SDS011;7958;53.024;12.970;2022-08-25T08:01:23;19.07;;;13.40;;
3571;SDS011;7958;53.024;12.970;2022-08-25T08:03:49;23.83;;;13.97;;
3571;SDS011;7958;53.024;12.970;2022-08-25T08:06:17;17.20;;;11.60;;
3571;SDS011;7958;53.024;12.970;2022-08-25T08:08:45;18.17;;;12.57;;
3571;SDS011;7958;53.024;12.970;2022-08-25T08:11:15;16.90;;;13.10;;
3571;SDS011;7958;53.024;12.970;2022-08-25T08:13:44;15.97;;;12.97;;
3571;SDS011;7958;53.024;12.970;2022-08-25T08:16:13;20.17;;;15.17;;
3571;SDS011;7958;53.024;12.970;2022-08-25T08:18:41;17.17;;;12.60;;
3571;SDS011;7958;53.024;12.970;2022-08-25T08:21:09;15.60;;;12.43;;
3571;SDS011;7958;53.024;12.970;2022-08-25T08:23:36;18.20;;;12.90;;
3571;SDS011;7958;53.024;12.970;2022-08-25T08:26:03;16.20;;;13.07;;
3571;SDS011;7958;53.024;12.970;2022-08-25T08:28:31;17.90;;;13.17;;
3571;SDS011;7958;53.024;12.970;2022-08-25T08:30:57;14.30;;;12.37;;
3571;SDS011;7958;53.024;12.970;2022-08-25T08:33:23;13.17;;;11.30;;
3571;SDS011;7958;53.024;12.970;2022-08-25T08:36:00;18.90;;;12.10;;
3571;SDS011;7958;53.024;12.970;2022-08-25T08:38:27;14.70;;;11.50;;
3571;SDS011;7958;53.024;12.970;2022-08-25T08:40:57;13.00;;;11.37;;
3571;SDS011;7958;53.024;12.970;2022-08-25T08:43:47;13.37;;;10.50;;
3571;SDS011;7958;53.024;12.970;2022-08-25T08:46:18;14.03;;;11.10;;
3571;SDS011;7958;53.024;12.970;2022-08-25T08:48:49;11.40;;;10.20;;
3571;SDS011;7958;53.024;12.970;2022-08-25T08:51:21;14.00;;;9.90;;
3571;SDS011;7958;53.024;12.970;2022-08-25T08:53:51;14.17;;;10.77;;
3571;SDS011;7958;53.024;12.970;2022-08-25T08:56:21;14.13;;;11.40;;
3571;SDS011;7958;53.024;12.970;2022-08-25T08:58:51;12.80;;;11.30;;
3571;SDS011;7958;53.024;12.970;2022-08-25T09:01:22;14.27;;;10.00;;
3571;SDS011;7958;53.024;12.970;2022-08-25T09:03:51;14.57;;;10.90;;
3571;SDS011;7958;53.024;12.970;2022-08-25T09:06:24;13.33;;;9.90;;
3571;SDS011;7958;53.024;12.970;2022-08-25T09:08:55;11.37;;;8.97;;
3571;SDS011;7958;53.024;12.970;2022-08-25T09:11:25;11.37;;;9.40;;
3571;SDS011;7958;53.024;12.970;2022-08-25T09:14:00;9.70;;;8.67;;
3571;SDS011;7958;53.024;12.970;2022-08-25T09:16:37;9.40;;;8.40;;
3571;SDS011;7958;53.024;12.970;2022-08-25T09:19:44;19.30;;;8.83;;
3571;SDS011;7958;53.024;12.970;2022-08-25T09:22:35;9.73;;;8.73;;
3571;SDS011;7958;53.024;12.970;2022-08-25T09:25:10;10.13;;;8.73;;
3571;SDS011;7958;53.024;12.970;2022-08-25T09:27:40;14.20;;;9.10;;
3571;SDS011;7958;53.024;12.970;2022-08-25T09:30:15;10.23;;;8.00;;
3571;SDS011;7958;53.024;12.970;2022-08-25T09:32:43;10.20;;;8.60;;
3571;SDS011;7958;53.024;12.970;2022-08-25T09:35:13;10.10;;;8.40;;
3571;SDS011;7958;53.024;12.970;2022-08-25T09:37:42;10.40;;;9.30;;
3571;SDS011;7958;53.024;12.970;2022-08-25T09:40:20;9.53;;;8.53;;
3571;SDS011;7958;53.024;12.970;2022-08-25T09:42:47;11.10;;;7.47;;
3571;SDS011;7958;53.024;12.970;2022-08-25T09:45:17;14.27;;;9.27;;
3571;SDS011;7958;53.024;12.970;2022-08-25T09:47:56;8.57;;;7.77;;
3571;SDS011;7958;53.024;12.970;2022-08-25T09:50:23;8.30;;;7.50;;
3571;SDS011;7958;53.024;12.970;2022-08-25T09:52:49;9.27;;;7.97;;
3571;SDS011;7958;53.024;12.970;2022-08-25T09:55:24;8.27;;;7.47;;
3571;SDS011;7958;53.024;12.970;2022-08-25T09:57:53;9.43;;;7.00;;
3571;SDS011;7958;53.024;12.970;2022-08-25T10:00:24;8.30;;;7.40;;
3571;SDS011;7958;53.024;12.970;2022-08-25T10:03:03;8.37;;;7.57;;
3571;SDS011;7958;53.024;12.970;2022-08-25T10:05:33;12.93;;;7.30;;
3571;SDS011;7958;53.024;12.970;2022-08-25T10:08:01;10.17;;;6.90;;
3571;SDS011;7958;53.024;12.970;2022-08-25T10:10:37;7.83;;;6.60;;
3571;SDS011;7958;53.024;12.970;2022-08-25T10:13:11;7.07;;;6.00;;
3571;SDS011;7958;53.024;12.970;2022-08-25T10:15:40;6.47;;;5.87;;
3571;SDS011;7958;53.024;12.970;2022-08-25T10:18:21;7.40;;;5.83;;
3571;SDS011;7958;53.024;12.970;2022-08-25T10:21:03;6.53;;;5.93;;
3571;SDS011;7958;53.024;12.970;2022-08-25T10:23:32;6.93;;;5.90;;
3571;SDS011;7958;53.024;12.970;2022-08-25T10:26:01;8.57;;;5.63;;
3571;SDS011;7958;53.024;12.970;2022-08-25T10:28:31;7.83;;;5.57;;
3571;SDS011;7958;53.024;12.970;2022-08-25T10:31:02;9.63;;;4.77;;
3571;SDS011;7958;53.024;12.970;2022-08-25T10:33:34;8.60;;;6.03;;
3571;SDS011;7958;53.024;12.970;2022-08-25T10:36:11;7.50;;;5.10;;
3571;SDS011;7958;53.024;12.970;2022-08-25T10:38:43;6.57;;;5.13;;
3571;SDS011;7958;53.024;12.970;2022-08-25T10:41:17;7.90;;;5.77;;
3571;SDS011;7958;53.024;12.970;2022-08-25T10:43:52;7.90;;;5.83;;
3571;SDS011;7958;53.024;12.970;2022-08-25T10:46:25;7.53;;;5.70;;
3571;SDS011;7958;53.024;12.970;2022-08-25T10:49:00;10.40;;;6.30;;
3571;SDS011;7958;53.024;12.970;2022-08-25T10:51:35;10.27;;;6.60;;
3571;SDS011;7958;53.024;12.970;2022-08-25T10:54:06;8.17;;;5.87;;
3571;SDS011;7958;53.024;12.970;2022-08-25T10:56:42;7.30;;;5.83;;
3571;SDS011;7958;53.024;12.970;2022-08-25T10:59:24;8.37;;;6.77;;
3571;SDS011;7958;53.024;12.970;2022-08-25T11:02:01;17.13;;;6.50;;
3571;SDS011;7958;53.024;12.970;2022-08-25T11:04:39;8.00;;;6.27;;
3571;SDS011;7958;53.024;12.970;2022-08-25T11:07:10;8.40;;;6.30;;
3571;SDS011;7958;53.024;12.970;2022-08-25T11:09:42;7.83;;;6.20;;
3571;SDS011;7958;53.024;12.970;2022-08-25T11:12:10;7.77;;;6.37;;
3571;SDS011;7958;53.024;12.970;2022-08-25T11:14:40;7.93;;;5.80;;
3571;SDS011;7958;53.024;12.970;2022-08-25T11:17:13;6.93;;;5.77;;
3571;SDS011;7958;53.024;12.970;2022-08-25T11:19:42;6.70;;;5.80;;
3571;SDS011;7958;53.024;12.970;2022-08-25T11:22:11;11.57;;;6.83;;
3571;SDS011;7958;53.024;12.970;2022-08-25T11:24:47;8.80;;;6.40;;
3571;SDS011;7958;53.024;12.970;2022-08-25T11:27:25;16.37;;;6.73;;
3571;SDS011;7958;53.024;12.970;2022-08-25T11:30:04;10.33;;;5.90;;
3571;SDS011;7958;53.024;12.970;2022-08-25T11:32:34;7.60;;;6.47;;
3571;SDS011;7958;53.024;12.970;2022-08-25T11:35:01;11.90;;;7.20;;
3571;SDS011;7958;53.024;12.970;2022-08-25T11:37:29;8.87;;;6.90;;
3571;SDS011;7958;53.024;12.970;2022-08-25T11:40:00;9.93;;;7.53;;
3571;SDS011;7958;53.024;12.970;2022-08-25T11:42:35;15.70;;;8.57;;
3571;SDS011;7958;53.024;12.970;2022-08-25T11:45:10;12.77;;;7.43;;
3571;SDS011;7958;53.024;12.970;2022-08-25T11:47:53;10.73;;;7.93;;
3571;SDS011;7958;53.024;12.970;2022-08-25T11:50:29;10.97;;;7.57;;
3571;SDS011;7958;53.024;12.970;2022-08-25T11:52:57;10.17;;;7.50;;
3571;SDS011;7958;53.024;12.970;2022-08-25T11:55:27;14.07;;;9.27;;
3571;SDS011;7958;53.024;12.970;2022-08-25T11:58:29;14.37;;;10.17;;
3571;SDS011;7958;53.024;12.970;2022-08-25T12:01:08;17.83;;;10.70;;
3571;SDS011;7958;53.024;12.970;2022-08-25T12:03:49;12.77;;;10.20;;
3571;SDS011;7958;53.024;12.970;2022-08-25T12:06:24;18.53;;;11.93;;
3571;SDS011;7958;53.024;12.970;2022-08-25T12:11:50;21.10;;;14.37;;
3571;SDS011;7958;53.024;12.970;2022-08-25T12:17:15;23.30;;;16.93;;
3571;SDS011;7958;53.024;12.970;2022-08-25T12:19:50;23.83;;;15.47;;
3571;SDS011;7958;53.024;12.970;2022-08-25T12:22:38;32.07;;;17.10;;
3571;SDS011;7958;53.024;12.970;2022-08-25T12:25:18;23.30;;;16.27;;
3571;SDS011;7958;53.024;12.970;2022-08-25T12:27:54;27.50;;;16.83;;
3571;SDS011;7958;53.024;12.970;2022-08-25T12:30:26;24.47;;;16.87;;
3571;SDS011;7958;53.024;12.970;2022-08-25T12:32:59;31.60;;;17.13;;
3571;SDS011;7958;53.024;12.970;2022-08-25T12:35:30;35.90;;;17.43;;
3571;SDS011;7958;53.024;12.970;2022-08-25T12:37:59;23.23;;;16.20;;
3571;SDS011;7958;53.024;12.970;2022-08-25T12:40:31;26.97;;;16.43;;
3571;SDS011;7958;53.024;12.970;2022-08-25T12:43:05;32.37;;;16.50;;
3571;SDS011;7958;53.024;12.970;2022-08-25T12:45:35;22.40;;;14.40;;
3571;SDS011;7958;53.024;12.970;2022-08-25T12:51:21;20.60;;;12.57;;
3571;SDS011;7958;53.024;12.970;2022-08-25T12:53:48;24.50;;;13.03;;
3571;SDS011;7958;53.024;12.970;2022-08-25T12:56:19;19.57;;;12.90;;
3571;SDS011;7958;53.024;12.970;2022-08-25T12:58:49;18.70;;;11.00;;
3571;SDS011;7958;53.024;12.970;2022-08-25T13:01:19;14.27;;;8.90;;
3571;SDS011;7958;53.024;12.970;2022-08-25T13:03:59;12.70;;;8.50;;
3571;SDS011;7958;53.024;12.970;2022-08-25T13:06:58;14.73;;;9.20;;
3571;SDS011;7958;53.024;12.970;2022-08-25T13:12:29;12.20;;;7.47;;
3571;SDS011;7958;53.024;12.970;2022-08-25T13:14:59;15.83;;;7.70;;
3571;SDS011;7958;53.024;12.970;2022-08-25T13:17:27;13.93;;;8.97;;
3571;SDS011;7958;53.024;12.970;2022-08-25T13:20:11;14.40;;;8.33;;
3571;SDS011;7958;53.024;12.970;2022-08-25T13:22:40;11.70;;;7.97;;
3571;SDS011;7958;53.024;12.970;2022-08-25T13:25:13;8.30;;;7.13;;
3571;SDS011;7958;53.024;12.970;2022-08-25T13:27:40;15.77;;;7.50;;
3571;SDS011;7958;53.024;12.970;2022-08-25T13:30:07;10.23;;;5.90;;
3571;SDS011;7958;53.024;12.970;2022-08-25T13:32:47;12.53;;;5.90;;
3571;SDS011;7958;53.024;12.970;2022-08-25T13:35:15;13.33;;;7.40;;
3571;SDS011;7958;53.024;12.970;2022-08-25T13:37:45;18.17;;;6.60;;
3571;SDS011;7958;53.024;12.970;2022-08-25T13:40:12;11.03;;;6.20;;
3571;SDS011;7958;53.024;12.970;2022-08-25T13:42:40;14.23;;;5.80;;
3571;SDS011;7958;53.024;12.970;2022-08-25T13:45:11;9.80;;;6.60;;
3571;SDS011;7958;53.024;12.970;2022-08-25T13:47:41;12.03;;;5.77;;
3571;SDS011;7958;53.024;12.970;2022-08-25T13:50:15;8.40;;;5.90;;
3571;SDS011;7958;53.024;12.970;2022-08-25T13:52:49;10.57;;;5.73;;
3571;SDS011;7958;53.024;12.970;2022-08-25T13:55:18;10.53;;;6.20;;
3571;SDS011;7958;53.024;12.970;2022-08-25T13:57:45;15.10;;;6.03;;
3571;SDS011;7958;53.024;12.970;2022-08-25T14:00:12;15.13;;;6.30;;
3571;SDS011;7958;53.024;12.970;2022-08-25T14:02:51;9.13;;;6.30;;
3571;SDS011;7958;53.024;12.970;2022-08-25T14:05:28;8.43;;;6.00;;
3571;SDS011;7958;53.024;12.970;2022-08-25T14:07:59;13.30;;;7.10;;
3571;SDS011;7958;53.024;12.970;2022-08-25T14:10:31;9.07;;;6.83;;
3571;SDS011;7958;53.024;12.970;2022-08-25T14:13:07;8.10;;;6.00;;
3571;SDS011;7958;53.024;12.970;2022-08-25T14:15:36;7.50;;;5.70;;
3571;SDS011;7958;53.024;12.970;2022-08-25T14:18:04;9.50;;;5.73;;
3571;SDS011;7958;53.024;12.970;2022-08-25T14:20:33;15.50;;;5.57;;
3571;SDS011;7958;53.024;12.970;2022-08-25T14:23:03;13.80;;;5.70;;
3571;SDS011;7958;53.024;12.970;2022-08-25T14:25:31;11.07;;;5.97;;
3571;SDS011;7958;53.024;12.970;2022-08-25T14:27:59;13.90;;;6.20;;
3571;SDS011;7958;53.024;12.970;2022-08-25T14:30:27;9.90;;;5.93;;
3571;SDS011;7958;53.024;12.970;2022-08-25T14:32:54;10.60;;;5.50;;
3571;SDS011;7958;53.024;12.970;2022-08-25T14:35:21;10.40;;;5.07;;
3571;SDS011;7958;53.024;12.970;2022-08-25T14:37:47;11.40;;;5.50;;
3571;SDS011;7958;53.024;12.970;2022-08-25T14:40:15;10.23;;;5.07;;
3571;SDS011;7958;53.024;12.970;2022-08-25T14:42:43;7.57;;;4.70;;
3571;SDS011;7958;53.024;12.970;2022-08-25T14:45:10;9.47;;;4.73;;
3571;SDS011;7958;53.024;12.970;2022-08-25T14:47:37;8.30;;;4.03;;
3571;SDS011;7958;53.024;12.970;2022-08-25T14:50:04;5.83;;;4.23;;
3571;SDS011;7958;53.024;12.970;2022-08-25T14:52:31;5.67;;;4.97;;
3571;SDS011;7958;53.024;12.970;2022-08-25T14:54:58;10.33;;;5.37;;
3571;SDS011;7958;53.024;12.970;2022-08-25T14:57:25;6.20;;;5.60;;
3571;SDS011;7958;53.024;12.970;2022-08-25T14:59:52;13.13;;;4.57;;
3571;SDS011;7958;53.024;12.970;2022-08-25T15:02:18;8.57;;;5.23;;
3571;SDS011;7958;53.024;12.970;2022-08-25T15:04:48;14.00;;;6.13;;
3571;SDS011;7958;53.024;12.970;2022-08-25T15:07:17;7.33;;;5.17;;
3571;SDS011;7958;53.024;12.970;2022-08-25T15:10:01;8.43;;;5.77;;